sensor_id;sensor_type;location;lat;lon;timestamp;P1;durP1;ratioP1;P2;durP2;ratioP2
15240;SDS011;7723;52.170;9.978;2022-12-18T00:01:14;12.00;;;7.00;;
15240;SDS011;7723;52.170;9.978;2022-12-18T00:03:44;14.70;;;7.03;;
15240;SDS011;7723;52.170;9.978;2022-12-18T00:06:11;13.03;;;7.43;;
15240;SDS011;7723;52.170;9.978;2022-12-18T00:08:38;13.83;;;6.80;;
15240;SDS011;7723;52.170;9.978;2022-12-18T00:11:06;11.53;;;6.23;;
15240;SDS011;7723;52.170;9.978;2022-12-18T00:13:34;12.80;;;7.07;;
15240;SDS011;7723;52.170;9.978;2022-12-18T00:16:03;15.10;;;6.77;;
15240;SDS011;7723;52.170;9.978;2022-12-18T00:18:32;11.47;;;6.40;;
15240;SDS011;7723;52.170;9.978;2022-12-18T00:20:59;16.43;;;7.27;;
15240;SDS011;7723;52.170;9.978;2022-12-18T00:23:28;22.77;;;11.13;;
15240;SDS011;7723;52.170;9.978;2022-12-18T00:25:58;14.23;;;7.97;;
15240;SDS011;7723;52.170;9.978;2022-12-18T00:28:25;15.83;;;7.80;;
15240;SDS011;7723;52.170;9.978;2022-12-18T00:30:59;17.30;;;8.30;;
15240;SDS011;7723;52.170;9.978;2022-12-18T00:33:28;14.57;;;7.30;;
15240;SDS011;7723;52.170;9.978;2022-12-18T00:35:59;13.20;;;7.10;;
15240;SDS011;7723;52.170;9.978;2022-12-18T00:38:27;14.03;;;6.57;;
15240;SDS011;7723;52.170;9.978;2022-12-18T00:40:54;12.63;;;6.60;;
15240;SDS011;7723;52.170;9.978;2022-12-18T00:43:21;14.93;;;7.53;;
15240;SDS011;7723;52.170;9.978;2022-12-18T00:45:47;13.07;;;6.60;;
15240;SDS011;7723;52.170;9.978;2022-12-18T00:48:14;14.20;;;6.67;;
15240;SDS011;7723;52.170;9.978;2022-12-18T00:50:43;12.97;;;7.10;;
15240;SDS011;7723;52.170;9.978;2022-12-18T00:53:10;10.73;;;6.50;;
15240;SDS011;7723;52.170;9.978;2022-12-18T00:55:37;13.33;;;7.77;;
15240;SDS011;7723;52.170;9.978;2022-12-18T00:58:06;17.40;;;7.87;;
15240;SDS011;7723;52.170;9.978;2022-12-18T01:00:33;15.33;;;6.73;;
15240;SDS011;7723;52.170;9.978;2022-12-18T01:03:00;15.97;;;7.20;;
15240;SDS011;7723;52.170;9.978;2022-12-18T01:05:27;13.63;;;6.83;;
15240;SDS011;7723;52.170;9.978;2022-12-18T01:07:56;13.70;;;7.30;;
15240;SDS011;7723;52.170;9.978;2022-12-18T01:10:23;11.20;;;6.80;;
15240;SDS011;7723;52.170;9.978;2022-12-18T01:12:51;14.13;;;6.40;;
15240;SDS011;7723;52.170;9.978;2022-12-18T01:15:18;13.83;;;7.87;;
15240;SDS011;7723;52.170;9.978;2022-12-18T01:17:46;13.27;;;7.83;;
15240;SDS011;7723;52.170;9.978;2022-12-18T01:20:13;14.03;;;7.70;;
15240;SDS011;7723;52.170;9.978;2022-12-18T01:22:40;13.17;;;7.63;;
15240;SDS011;7723;52.170;9.978;2022-12-18T01:25:09;14.10;;;7.67;;
15240;SDS011;7723;52.170;9.978;2022-12-18T01:27:36;18.43;;;8.50;;
15240;SDS011;7723;52.170;9.978;2022-12-18T01:30:04;12.23;;;7.10;;
15240;SDS011;7723;52.170;9.978;2022-12-18T01:32:32;12.67;;;6.97;;
15240;SDS011;7723;52.170;9.978;2022-12-18T01:34:59;16.67;;;7.30;;
15240;SDS011;7723;52.170;9.978;2022-12-18T01:37:26;13.83;;;7.00;;
15240;SDS011;7723;52.170;9.978;2022-12-18T01:39:53;15.47;;;7.10;;
15240;SDS011;7723;52.170;9.978;2022-12-18T01:42:22;13.77;;;6.93;;
15240;SDS011;7723;52.170;9.978;2022-12-18T01:44:53;12.47;;;6.87;;
15240;SDS011;7723;52.170;9.978;2022-12-18T01:47:23;13.77;;;7.00;;
15240;SDS011;7723;52.170;9.978;2022-12-18T01:49:54;14.67;;;7.83;;
15240;SDS011;7723;52.170;9.978;2022-12-18T01:52:23;13.67;;;7.60;;
15240;SDS011;7723;52.170;9.978;2022-12-18T01:54:52;17.47;;;8.27;;
15240;SDS011;7723;52.170;9.978;2022-12-18T01:57:22;12.00;;;7.70;;
15240;SDS011;7723;52.170;9.978;2022-12-18T01:59:51;12.87;;;7.13;;
15240;SDS011;7723;52.170;9.978;2022-12-18T02:02:22;12.87;;;7.40;;
15240;SDS011;7723;52.170;9.978;2022-12-18T02:04:49;11.23;;;6.73;;
15240;SDS011;7723;52.170;9.978;2022-12-18T02:07:17;13.13;;;6.90;;
15240;SDS011;7723;52.170;9.978;2022-12-18T02:09:50;14.50;;;6.87;;
15240;SDS011;7723;52.170;9.978;2022-12-18T02:12:26;14.30;;;7.70;;
15240;SDS011;7723;52.170;9.978;2022-12-18T02:15:02;15.10;;;7.47;;
15240;SDS011;7723;52.170;9.978;2022-12-18T02:17:36;11.50;;;6.23;;
15240;SDS011;7723;52.170;9.978;2022-12-18T02:20:07;13.70;;;7.13;;
15240;SDS011;7723;52.170;9.978;2022-12-18T02:22:43;13.60;;;7.20;;
15240;SDS011;7723;52.170;9.978;2022-12-18T02:25:21;13.00;;;6.40;;
15240;SDS011;7723;52.170;9.978;2022-12-18T02:28:02;13.10;;;7.30;;
15240;SDS011;7723;52.170;9.978;2022-12-18T02:30:33;10.63;;;6.30;;
15240;SDS011;7723;52.170;9.978;2022-12-18T02:33:04;13.57;;;6.73;;
15240;SDS011;7723;52.170;9.978;2022-12-18T02:35:33;12.73;;;6.90;;
15240;SDS011;7723;52.170;9.978;2022-12-18T02:38:02;12.53;;;6.43;;
15240;SDS011;7723;52.170;9.978;2022-12-18T02:40:30;11.63;;;6.87;;
15240;SDS011;7723;52.170;9.978;2022-12-18T02:43:06;13.33;;;6.80;;
15240;SDS011;7723;52.170;9.978;2022-12-18T02:45:34;12.50;;;6.17;;
15240;SDS011;7723;52.170;9.978;2022-12-18T02:48:01;12.60;;;6.13;;
15240;SDS011;7723;52.170;9.978;2022-12-18T02:50:30;13.87;;;7.37;;
15240;SDS011;7723;52.170;9.978;2022-12-18T02:53:03;13.07;;;7.07;;
15240;SDS011;7723;52.170;9.978;2022-12-18T02:55:42;15.27;;;6.03;;
15240;SDS011;7723;52.170;9.978;2022-12-18T02:58:20;11.87;;;6.73;;
15240;SDS011;7723;52.170;9.978;2022-12-18T03:00:56;15.90;;;7.27;;
15240;SDS011;7723;52.170;9.978;2022-12-18T03:03:29;12.00;;;6.77;;
15240;SDS011;7723;52.170;9.978;2022-12-18T03:06:01;10.60;;;6.13;;
15240;SDS011;7723;52.170;9.978;2022-12-18T03:08:36;12.10;;;6.93;;
15240;SDS011;7723;52.170;9.978;2022-12-18T03:11:07;13.43;;;6.90;;
15240;SDS011;7723;52.170;9.978;2022-12-18T03:13:39;14.70;;;7.30;;
15240;SDS011;7723;52.170;9.978;2022-12-18T03:16:11;14.50;;;7.33;;
15240;SDS011;7723;52.170;9.978;2022-12-18T03:18:45;12.53;;;6.90;;
15240;SDS011;7723;52.170;9.978;2022-12-18T03:21:15;11.13;;;6.63;;
15240;SDS011;7723;52.170;9.978;2022-12-18T03:23:48;12.53;;;6.20;;
15240;SDS011;7723;52.170;9.978;2022-12-18T03:26:18;15.53;;;7.43;;
15240;SDS011;7723;52.170;9.978;2022-12-18T03:28:49;15.53;;;6.47;;
15240;SDS011;7723;52.170;9.978;2022-12-18T03:31:19;12.17;;;6.63;;
15240;SDS011;7723;52.170;9.978;2022-12-18T03:33:51;13.80;;;6.80;;
15240;SDS011;7723;52.170;9.978;2022-12-18T03:36:19;14.37;;;6.80;;
15240;SDS011;7723;52.170;9.978;2022-12-18T03:38:46;12.93;;;6.67;;
15240;SDS011;7723;52.170;9.978;2022-12-18T03:41:15;12.93;;;6.83;;
15240;SDS011;7723;52.170;9.978;2022-12-18T03:43:55;12.17;;;6.60;;
15240;SDS011;7723;52.170;9.978;2022-12-18T03:46:28;12.73;;;6.37;;
15240;SDS011;7723;52.170;9.978;2022-12-18T03:49:02;12.87;;;6.13;;
15240;SDS011;7723;52.170;9.978;2022-12-18T03:51:37;14.83;;;6.60;;
15240;SDS011;7723;52.170;9.978;2022-12-18T03:54:08;14.63;;;6.63;;
15240;SDS011;7723;52.170;9.978;2022-12-18T03:56:38;17.30;;;5.97;;
15240;SDS011;7723;52.170;9.978;2022-12-18T03:59:11;14.27;;;6.83;;
15240;SDS011;7723;52.170;9.978;2022-12-18T04:01:42;10.50;;;5.40;;
15240;SDS011;7723;52.170;9.978;2022-12-18T04:04:13;10.00;;;5.70;;
15240;SDS011;7723;52.170;9.978;2022-12-18T04:06:42;11.63;;;6.20;;
15240;SDS011;7723;52.170;9.978;2022-12-18T04:09:11;10.97;;;5.87;;
15240;SDS011;7723;52.170;9.978;2022-12-18T04:11:39;11.67;;;6.27;;
15240;SDS011;7723;52.170;9.978;2022-12-18T04:14:07;8.03;;;5.10;;
15240;SDS011;7723;52.170;9.978;2022-12-18T04:16:35;11.50;;;5.37;;
15240;SDS011;7723;52.170;9.978;2022-12-18T04:19:03;11.13;;;6.10;;
15240;SDS011;7723;52.170;9.978;2022-12-18T04:21:31;11.03;;;6.10;;
15240;SDS011;7723;52.170;9.978;2022-12-18T04:23:59;11.97;;;5.87;;
15240;SDS011;7723;52.170;9.978;2022-12-18T04:26:26;12.97;;;5.27;;
15240;SDS011;7723;52.170;9.978;2022-12-18T04:28:53;9.60;;;5.63;;
15240;SDS011;7723;52.170;9.978;2022-12-18T04:31:20;10.33;;;5.40;;
15240;SDS011;7723;52.170;9.978;2022-12-18T04:33:49;13.20;;;5.77;;
15240;SDS011;7723;52.170;9.978;2022-12-18T04:36:16;8.53;;;5.50;;
15240;SDS011;7723;52.170;9.978;2022-12-18T04:38:43;10.10;;;4.70;;
15240;SDS011;7723;52.170;9.978;2022-12-18T04:41:10;9.53;;;5.97;;
15240;SDS011;7723;52.170;9.978;2022-12-18T04:43:40;10.77;;;5.10;;
15240;SDS011;7723;52.170;9.978;2022-12-18T04:46:07;9.83;;;5.57;;
15240;SDS011;7723;52.170;9.978;2022-12-18T04:48:34;9.50;;;4.53;;
15240;SDS011;7723;52.170;9.978;2022-12-18T04:51:04;11.10;;;6.17;;
15240;SDS011;7723;52.170;9.978;2022-12-18T04:53:32;10.43;;;5.53;;
15240;SDS011;7723;52.170;9.978;2022-12-18T04:56:03;13.37;;;6.03;;
15240;SDS011;7723;52.170;9.978;2022-12-18T04:58:31;9.70;;;5.47;;
15240;SDS011;7723;52.170;9.978;2022-12-18T05:00:59;10.80;;;5.70;;
15240;SDS011;7723;52.170;9.978;2022-12-18T05:03:26;9.83;;;5.37;;
15240;SDS011;7723;52.170;9.978;2022-12-18T05:05:53;9.13;;;5.13;;
15240;SDS011;7723;52.170;9.978;2022-12-18T05:08:21;11.83;;;5.57;;
15240;SDS011;7723;52.170;9.978;2022-12-18T05:10:48;12.47;;;5.53;;
15240;SDS011;7723;52.170;9.978;2022-12-18T05:13:15;10.67;;;5.97;;
15240;SDS011;7723;52.170;9.978;2022-12-18T05:15:43;11.20;;;5.63;;
15240;SDS011;7723;52.170;9.978;2022-12-18T05:18:17;8.07;;;5.27;;
15240;SDS011;7723;52.170;9.978;2022-12-18T05:20:45;11.87;;;5.83;;
15240;SDS011;7723;52.170;9.978;2022-12-18T05:23:12;11.63;;;5.70;;
15240;SDS011;7723;52.170;9.978;2022-12-18T05:25:41;8.60;;;4.37;;
15240;SDS011;7723;52.170;9.978;2022-12-18T05:28:08;10.03;;;4.87;;
15240;SDS011;7723;52.170;9.978;2022-12-18T05:30:35;10.23;;;5.33;;
15240;SDS011;7723;52.170;9.978;2022-12-18T05:33:02;9.70;;;4.73;;
15240;SDS011;7723;52.170;9.978;2022-12-18T05:35:29;13.33;;;5.80;;
15240;SDS011;7723;52.170;9.978;2022-12-18T05:37:56;10.13;;;5.67;;
15240;SDS011;7723;52.170;9.978;2022-12-18T05:40:23;9.60;;;5.90;;
15240;SDS011;7723;52.170;9.978;2022-12-18T05:42:52;10.50;;;5.30;;
15240;SDS011;7723;52.170;9.978;2022-12-18T05:45:19;12.17;;;6.00;;
15240;SDS011;7723;52.170;9.978;2022-12-18T05:47:46;13.10;;;5.73;;
15240;SDS011;7723;52.170;9.978;2022-12-18T05:50:13;13.10;;;6.13;;
15240;SDS011;7723;52.170;9.978;2022-12-18T05:52:40;11.10;;;5.93;;
15240;SDS011;7723;52.170;9.978;2022-12-18T05:55:08;9.60;;;4.87;;
15240;SDS011;7723;52.170;9.978;2022-12-18T05:57:35;9.93;;;5.57;;
15240;SDS011;7723;52.170;9.978;2022-12-18T06:00:04;13.23;;;6.17;;
15240;SDS011;7723;52.170;9.978;2022-12-18T06:02:32;10.00;;;5.93;;
15240;SDS011;7723;52.170;9.978;2022-12-18T06:04:59;10.03;;;5.83;;
15240;SDS011;7723;52.170;9.978;2022-12-18T06:07:26;9.50;;;5.30;;
15240;SDS011;7723;52.170;9.978;2022-12-18T06:09:53;10.73;;;6.30;;
15240;SDS011;7723;52.170;9.978;2022-12-18T06:12:20;10.17;;;5.37;;
15240;SDS011;7723;52.170;9.978;2022-12-18T06:14:47;10.40;;;5.80;;
15240;SDS011;7723;52.170;9.978;2022-12-18T06:17:15;10.00;;;5.30;;
15240;SDS011;7723;52.170;9.978;2022-12-18T06:19:42;10.67;;;6.03;;
15240;SDS011;7723;52.170;9.978;2022-12-18T06:22:09;11.07;;;5.80;;
15240;SDS011;7723;52.170;9.978;2022-12-18T06:24:37;12.50;;;5.70;;
15240;SDS011;7723;52.170;9.978;2022-12-18T06:27:04;10.33;;;5.83;;
15240;SDS011;7723;52.170;9.978;2022-12-18T06:29:31;9.67;;;5.13;;
15240;SDS011;7723;52.170;9.978;2022-12-18T06:31:58;6.93;;;4.50;;
15240;SDS011;7723;52.170;9.978;2022-12-18T06:34:26;9.23;;;5.40;;
15240;SDS011;7723;52.170;9.978;2022-12-18T06:36:54;8.53;;;4.83;;
15240;SDS011;7723;52.170;9.978;2022-12-18T06:39:22;9.70;;;5.20;;
15240;SDS011;7723;52.170;9.978;2022-12-18T06:41:49;9.50;;;4.67;;
15240;SDS011;7723;52.170;9.978;2022-12-18T06:44:17;9.57;;;4.27;;
15240;SDS011;7723;52.170;9.978;2022-12-18T06:46:44;8.33;;;4.23;;
15240;SDS011;7723;52.170;9.978;2022-12-18T06:49:11;8.07;;;4.03;;
15240;SDS011;7723;52.170;9.978;2022-12-18T06:51:43;7.80;;;4.13;;
15240;SDS011;7723;52.170;9.978;2022-12-18T06:54:10;7.80;;;4.27;;
15240;SDS011;7723;52.170;9.978;2022-12-18T06:56:38;7.60;;;5.00;;
15240;SDS011;7723;52.170;9.978;2022-12-18T06:59:06;12.67;;;4.63;;
15240;SDS011;7723;52.170;9.978;2022-12-18T07:01:34;8.93;;;4.17;;
15240;SDS011;7723;52.170;9.978;2022-12-18T07:04:01;7.57;;;4.10;;
15240;SDS011;7723;52.170;9.978;2022-12-18T07:06:28;6.63;;;3.27;;
15240;SDS011;7723;52.170;9.978;2022-12-18T07:08:57;5.63;;;3.37;;
15240;SDS011;7723;52.170;9.978;2022-12-18T07:11:24;7.10;;;3.43;;
15240;SDS011;7723;52.170;9.978;2022-12-18T07:13:51;6.77;;;3.40;;
15240;SDS011;7723;52.170;9.978;2022-12-18T07:16:20;5.77;;;3.43;;
15240;SDS011;7723;52.170;9.978;2022-12-18T07:18:47;8.27;;;3.50;;
15240;SDS011;7723;52.170;9.978;2022-12-18T07:21:15;6.27;;;3.40;;
15240;SDS011;7723;52.170;9.978;2022-12-18T07:23:44;9.57;;;4.50;;
15240;SDS011;7723;52.170;9.978;2022-12-18T07:26:15;11.57;;;5.17;;
15240;SDS011;7723;52.170;9.978;2022-12-18T07:28:43;6.77;;;4.43;;
15240;SDS011;7723;52.170;9.978;2022-12-18T07:31:10;9.63;;;4.83;;
15240;SDS011;7723;52.170;9.978;2022-12-18T07:33:39;4.90;;;3.53;;
15240;SDS011;7723;52.170;9.978;2022-12-18T07:36:07;9.82;;;4.28;;
15240;SDS011;7723;52.170;9.978;2022-12-18T07:38:35;5.73;;;3.80;;
15240;SDS011;7723;52.170;9.978;2022-12-18T07:41:03;9.80;;;4.30;;
15240;SDS011;7723;52.170;9.978;2022-12-18T07:43:33;6.40;;;3.77;;
15240;SDS011;7723;52.170;9.978;2022-12-18T07:46:01;9.40;;;3.30;;
15240;SDS011;7723;52.170;9.978;2022-12-18T07:48:28;7.27;;;3.80;;
15240;SDS011;7723;52.170;9.978;2022-12-18T07:50:57;6.10;;;3.47;;
15240;SDS011;7723;52.170;9.978;2022-12-18T07:53:26;7.00;;;3.73;;
15240;SDS011;7723;52.170;9.978;2022-12-18T07:55:54;6.60;;;3.17;;
15240;SDS011;7723;52.170;9.978;2022-12-18T07:58:22;7.43;;;4.57;;
15240;SDS011;7723;52.170;9.978;2022-12-18T08:00:51;8.07;;;3.60;;
15240;SDS011;7723;52.170;9.978;2022-12-18T08:03:19;6.67;;;3.47;;
15240;SDS011;7723;52.170;9.978;2022-12-18T08:05:46;5.77;;;3.27;;
15240;SDS011;7723;52.170;9.978;2022-12-18T08:08:16;6.03;;;3.63;;
15240;SDS011;7723;52.170;9.978;2022-12-18T08:10:43;5.97;;;3.27;;
15240;SDS011;7723;52.170;9.978;2022-12-18T08:13:10;6.13;;;2.90;;
15240;SDS011;7723;52.170;9.978;2022-12-18T08:15:37;5.73;;;3.07;;
15240;SDS011;7723;52.170;9.978;2022-12-18T08:18:05;5.60;;;2.67;;
15240;SDS011;7723;52.170;9.978;2022-12-18T08:20:32;4.93;;;2.73;;
15240;SDS011;7723;52.170;9.978;2022-12-18T08:23:00;6.33;;;3.23;;
15240;SDS011;7723;52.170;9.978;2022-12-18T08:25:27;5.77;;;2.80;;
15240;SDS011;7723;52.170;9.978;2022-12-18T08:27:54;4.87;;;2.90;;
15240;SDS011;7723;52.170;9.978;2022-12-18T08:30:21;3.90;;;2.70;;
15240;SDS011;7723;52.170;9.978;2022-12-18T08:32:50;3.53;;;2.70;;
15240;SDS011;7723;52.170;9.978;2022-12-18T08:35:19;4.10;;;2.60;;
15240;SDS011;7723;52.170;9.978;2022-12-18T08:37:46;5.70;;;2.60;;
15240;SDS011;7723;52.170;9.978;2022-12-18T08:40:14;6.43;;;2.67;;
15240;SDS011;7723;52.170;9.978;2022-12-18T08:42:41;3.43;;;2.60;;
15240;SDS011;7723;52.170;9.978;2022-12-18T08:45:22;3.90;;;2.10;;
15240;SDS011;7723;52.170;9.978;2022-12-18T08:47:49;6.27;;;2.20;;
15240;SDS011;7723;52.170;9.978;2022-12-18T08:50:16;3.70;;;2.20;;
15240;SDS011;7723;52.170;9.978;2022-12-18T08:52:45;4.87;;;2.10;;
15240;SDS011;7723;52.170;9.978;2022-12-18T08:55:12;4.10;;;2.30;;
15240;SDS011;7723;52.170;9.978;2022-12-18T08:57:39;2.90;;;1.90;;
15240;SDS011;7723;52.170;9.978;2022-12-18T09:00:07;4.93;;;2.37;;
15240;SDS011;7723;52.170;9.978;2022-12-18T09:02:35;4.03;;;1.90;;
15240;SDS011;7723;52.170;9.978;2022-12-18T09:05:02;4.07;;;2.90;;
15240;SDS011;7723;52.170;9.978;2022-12-18T09:07:31;5.93;;;3.03;;
15240;SDS011;7723;52.170;9.978;2022-12-18T09:09:58;3.73;;;2.07;;
15240;SDS011;7723;52.170;9.978;2022-12-18T09:12:25;4.27;;;2.60;;
15240;SDS011;7723;52.170;9.978;2022-12-18T09:14:52;4.00;;;2.30;;
15240;SDS011;7723;52.170;9.978;2022-12-18T09:17:19;3.97;;;1.77;;
15240;SDS011;7723;52.170;9.978;2022-12-18T09:19:46;3.30;;;2.03;;
15240;SDS011;7723;52.170;9.978;2022-12-18T09:22:13;23.17;;;12.50;;
15240;SDS011;7723;52.170;9.978;2022-12-18T09:24:42;8.30;;;4.00;;
15240;SDS011;7723;52.170;9.978;2022-12-18T09:27:09;1.93;;;1.30;;
15240;SDS011;7723;52.170;9.978;2022-12-18T09:29:36;2.60;;;1.13;;
15240;SDS011;7723;52.170;9.978;2022-12-18T09:32:03;3.30;;;2.20;;
15240;SDS011;7723;52.170;9.978;2022-12-18T09:34:30;2.83;;;1.80;;
15240;SDS011;7723;52.170;9.978;2022-12-18T09:36:58;4.77;;;1.70;;
15240;SDS011;7723;52.170;9.978;2022-12-18T09:39:25;2.13;;;1.40;;
15240;SDS011;7723;52.170;9.978;2022-12-18T09:41:54;3.27;;;1.70;;
15240;SDS011;7723;52.170;9.978;2022-12-18T09:44:23;3.97;;;2.53;;
15240;SDS011;7723;52.170;9.978;2022-12-18T09:46:54;5.20;;;2.10;;
15240;SDS011;7723;52.170;9.978;2022-12-18T09:49:30;3.13;;;2.00;;
15240;SDS011;7723;52.170;9.978;2022-12-18T09:52:02;4.00;;;2.13;;
15240;SDS011;7723;52.170;9.978;2022-12-18T09:54:36;4.13;;;1.70;;
15240;SDS011;7723;52.170;9.978;2022-12-18T09:57:09;3.40;;;1.70;;
15240;SDS011;7723;52.170;9.978;2022-12-18T09:59:39;4.63;;;2.63;;
15240;SDS011;7723;52.170;9.978;2022-12-18T10:02:14;4.07;;;1.63;;
15240;SDS011;7723;52.170;9.978;2022-12-18T10:04:43;2.87;;;1.90;;
15240;SDS011;7723;52.170;9.978;2022-12-18T10:07:15;2.67;;;1.50;;
15240;SDS011;7723;52.170;9.978;2022-12-18T10:09:49;2.97;;;1.57;;
15240;SDS011;7723;52.170;9.978;2022-12-18T10:12:27;3.83;;;1.50;;
15240;SDS011;7723;52.170;9.978;2022-12-18T10:15:01;2.80;;;1.30;;
15240;SDS011;7723;52.170;9.978;2022-12-18T10:17:34;2.17;;;1.53;;
15240;SDS011;7723;52.170;9.978;2022-12-18T10:20:10;3.70;;;1.73;;
15240;SDS011;7723;52.170;9.978;2022-12-18T10:22:44;1.63;;;1.40;;
15240;SDS011;7723;52.170;9.978;2022-12-18T10:25:20;2.50;;;1.40;;
15240;SDS011;7723;52.170;9.978;2022-12-18T10:27:52;3.70;;;2.03;;
15240;SDS011;7723;52.170;9.978;2022-12-18T10:30:27;3.63;;;2.60;;
15240;SDS011;7723;52.170;9.978;2022-12-18T10:32:54;4.70;;;1.70;;
15240;SDS011;7723;52.170;9.978;2022-12-18T10:35:26;7.73;;;2.60;;
15240;SDS011;7723;52.170;9.978;2022-12-18T10:38:00;3.87;;;1.73;;
15240;SDS011;7723;52.170;9.978;2022-12-18T10:40:30;4.50;;;2.50;;
15240;SDS011;7723;52.170;9.978;2022-12-18T10:43:09;2.83;;;2.10;;
15240;SDS011;7723;52.170;9.978;2022-12-18T10:45:38;2.83;;;1.83;;
15240;SDS011;7723;52.170;9.978;2022-12-18T10:48:16;6.67;;;1.90;;
15240;SDS011;7723;52.170;9.978;2022-12-18T10:50:46;6.83;;;2.10;;
15240;SDS011;7723;52.170;9.978;2022-12-18T10:53:17;4.73;;;1.70;;
15240;SDS011;7723;52.170;9.978;2022-12-18T10:55:47;3.73;;;2.10;;
15240;SDS011;7723;52.170;9.978;2022-12-18T10:58:22;2.90;;;2.20;;
15240;SDS011;7723;52.170;9.978;2022-12-18T11:01:04;2.70;;;1.67;;
15240;SDS011;7723;52.170;9.978;2022-12-18T11:03:35;1.77;;;1.57;;
15240;SDS011;7723;52.170;9.978;2022-12-18T11:06:04;3.47;;;1.70;;
15240;SDS011;7723;52.170;9.978;2022-12-18T11:08:33;2.90;;;1.77;;
15240;SDS011;7723;52.170;9.978;2022-12-18T11:11:01;5.63;;;2.10;;
15240;SDS011;7723;52.170;9.978;2022-12-18T11:13:30;4.77;;;1.90;;
15240;SDS011;7723;52.170;9.978;2022-12-18T11:15:58;3.20;;;1.80;;
15240;SDS011;7723;52.170;9.978;2022-12-18T11:18:27;3.90;;;2.03;;
15240;SDS011;7723;52.170;9.978;2022-12-18T11:20:56;3.07;;;1.53;;
15240;SDS011;7723;52.170;9.978;2022-12-18T11:23:25;3.37;;;1.70;;
15240;SDS011;7723;52.170;9.978;2022-12-18T11:25:54;4.70;;;1.90;;
15240;SDS011;7723;52.170;9.978;2022-12-18T11:28:38;2.73;;;1.70;;
15240;SDS011;7723;52.170;9.978;2022-12-18T11:31:17;2.57;;;1.87;;
15240;SDS011;7723;52.170;9.978;2022-12-18T11:33:50;3.83;;;2.03;;
15240;SDS011;7723;52.170;9.978;2022-12-18T11:36:22;3.60;;;1.80;;
15240;SDS011;7723;52.170;9.978;2022-12-18T11:38:52;3.37;;;1.70;;
15240;SDS011;7723;52.170;9.978;2022-12-18T11:41:23;2.90;;;1.40;;
15240;SDS011;7723;52.170;9.978;2022-12-18T11:44:10;5.83;;;1.70;;
15240;SDS011;7723;52.170;9.978;2022-12-18T11:46:43;3.13;;;1.60;;
15240;SDS011;7723;52.170;9.978;2022-12-18T11:49:14;3.10;;;1.50;;
15240;SDS011;7723;52.170;9.978;2022-12-18T11:51:48;1.97;;;1.10;;
15240;SDS011;7723;52.170;9.978;2022-12-18T11:54:19;2.70;;;1.80;;
15240;SDS011;7723;52.170;9.978;2022-12-18T11:56:48;2.40;;;1.63;;
15240;SDS011;7723;52.170;9.978;2022-12-18T11:59:20;2.63;;;1.80;;
15240;SDS011;7723;52.170;9.978;2022-12-18T12:01:53;5.00;;;1.80;;
15240;SDS011;7723;52.170;9.978;2022-12-18T12:04:30;1.97;;;1.60;;
15240;SDS011;7723;52.170;9.978;2022-12-18T12:07:21;3.40;;;2.07;;
15240;SDS011;7723;52.170;9.978;2022-12-18T12:10:01;6.10;;;1.83;;
15240;SDS011;7723;52.170;9.978;2022-12-18T12:12:39;3.73;;;2.37;;
15240;SDS011;7723;52.170;9.978;2022-12-18T12:15:25;5.63;;;2.13;;
15240;SDS011;7723;52.170;9.978;2022-12-18T12:18:03;3.70;;;1.80;;
15240;SDS011;7723;52.170;9.978;2022-12-18T12:20:42;2.53;;;1.90;;
15240;SDS011;7723;52.170;9.978;2022-12-18T12:23:20;4.00;;;2.50;;
15240;SDS011;7723;52.170;9.978;2022-12-18T12:25:56;2.70;;;1.70;;
15240;SDS011;7723;52.170;9.978;2022-12-18T12:28:34;2.00;;;1.60;;
15240;SDS011;7723;52.170;9.978;2022-12-18T12:31:15;4.93;;;2.33;;
15240;SDS011;7723;52.170;9.978;2022-12-18T12:33:50;6.70;;;2.17;;
15240;SDS011;7723;52.170;9.978;2022-12-18T12:36:26;3.83;;;2.10;;
15240;SDS011;7723;52.170;9.978;2022-12-18T12:39:06;7.40;;;2.40;;
15240;SDS011;7723;52.170;9.978;2022-12-18T12:41:37;6.70;;;3.30;;
15240;SDS011;7723;52.170;9.978;2022-12-18T12:44:25;3.47;;;2.30;;
15240;SDS011;7723;52.170;9.978;2022-12-18T12:46:59;6.83;;;3.17;;
15240;SDS011;7723;52.170;9.978;2022-12-18T12:49:31;3.50;;;2.60;;
15240;SDS011;7723;52.170;9.978;2022-12-18T12:52:00;5.27;;;2.53;;
15240;SDS011;7723;52.170;9.978;2022-12-18T12:54:31;4.30;;;2.90;;
15240;SDS011;7723;52.170;9.978;2022-12-18T12:57:00;5.63;;;3.77;;
15240;SDS011;7723;52.170;9.978;2022-12-18T12:59:34;9.03;;;4.63;;
15240;SDS011;7723;52.170;9.978;2022-12-18T13:02:14;10.87;;;6.40;;
15240;SDS011;7723;52.170;9.978;2022-12-18T13:04:46;9.40;;;5.90;;
15240;SDS011;7723;52.170;9.978;2022-12-18T13:07:18;11.47;;;6.63;;
15240;SDS011;7723;52.170;9.978;2022-12-18T13:12:52;13.70;;;7.50;;
15240;SDS011;7723;52.170;9.978;2022-12-18T13:15:24;9.53;;;5.40;;
15240;SDS011;7723;52.170;9.978;2022-12-18T13:18:18;10.13;;;5.30;;
15240;SDS011;7723;52.170;9.978;2022-12-18T13:20:48;7.80;;;4.50;;
15240;SDS011;7723;52.170;9.978;2022-12-18T13:23:25;7.40;;;4.23;;
15240;SDS011;7723;52.170;9.978;2022-12-18T13:25:55;11.20;;;5.33;;
15240;SDS011;7723;52.170;9.978;2022-12-18T13:28:24;10.13;;;5.23;;
15240;SDS011;7723;52.170;9.978;2022-12-18T13:34:20;8.40;;;5.60;;
15240;SDS011;7723;52.170;9.978;2022-12-18T13:36:48;11.03;;;5.90;;
15240;SDS011;7723;52.170;9.978;2022-12-18T13:39:23;12.60;;;6.37;;
15240;SDS011;7723;52.170;9.978;2022-12-18T13:48:12;12.53;;;6.43;;
15240;SDS011;7723;52.170;9.978;2022-12-18T13:50:44;9.27;;;6.00;;
15240;SDS011;7723;52.170;9.978;2022-12-18T13:53:20;10.30;;;6.20;;
15240;SDS011;7723;52.170;9.978;2022-12-18T13:55:50;14.70;;;6.67;;
15240;SDS011;7723;52.170;9.978;2022-12-18T13:58:18;12.40;;;6.20;;
15240;SDS011;7723;52.170;9.978;2022-12-18T14:00:45;9.53;;;5.57;;
15240;SDS011;7723;52.170;9.978;2022-12-18T14:03:16;12.83;;;5.67;;
15240;SDS011;7723;52.170;9.978;2022-12-18T14:05:47;12.07;;;7.07;;
15240;SDS011;7723;52.170;9.978;2022-12-18T14:08:20;12.97;;;6.37;;
15240;SDS011;7723;52.170;9.978;2022-12-18T14:10:48;12.20;;;6.10;;
15240;SDS011;7723;52.170;9.978;2022-12-18T14:13:19;7.43;;;5.20;;
15240;SDS011;7723;52.170;9.978;2022-12-18T14:15:53;8.67;;;5.47;;
15240;SDS011;7723;52.170;9.978;2022-12-18T14:18:22;12.20;;;5.97;;
15240;SDS011;7723;52.170;9.978;2022-12-18T14:20:54;9.63;;;6.13;;
15240;SDS011;7723;52.170;9.978;2022-12-18T14:23:26;11.30;;;6.00;;
15240;SDS011;7723;52.170;9.978;2022-12-18T14:25:58;10.70;;;5.90;;
15240;SDS011;7723;52.170;9.978;2022-12-18T14:28:26;9.27;;;5.77;;
15240;SDS011;7723;52.170;9.978;2022-12-18T14:30:53;11.93;;;7.00;;
15240;SDS011;7723;52.170;9.978;2022-12-18T14:33:22;12.30;;;6.07;;
15240;SDS011;7723;52.170;9.978;2022-12-18T14:35:56;9.63;;;6.33;;
15240;SDS011;7723;52.170;9.978;2022-12-18T14:38:28;12.33;;;7.17;;
15240;SDS011;7723;52.170;9.978;2022-12-18T14:40:57;13.13;;;6.20;;
15240;SDS011;7723;52.170;9.978;2022-12-18T14:43:25;9.47;;;6.37;;
15240;SDS011;7723;52.170;9.978;2022-12-18T14:45:53;11.60;;;6.13;;
15240;SDS011;7723;52.170;9.978;2022-12-18T14:48:21;9.93;;;5.97;;
15240;SDS011;7723;52.170;9.978;2022-12-18T14:51:00;12.47;;;6.23;;
15240;SDS011;7723;52.170;9.978;2022-12-18T14:53:32;9.87;;;6.30;;
15240;SDS011;7723;52.170;9.978;2022-12-18T14:56:10;11.17;;;6.07;;
15240;SDS011;7723;52.170;9.978;2022-12-18T14:58:44;11.53;;;5.97;;
15240;SDS011;7723;52.170;9.978;2022-12-18T15:01:17;10.90;;;7.07;;
15240;SDS011;7723;52.170;9.978;2022-12-18T15:03:46;9.87;;;5.23;;
15240;SDS011;7723;52.170;9.978;2022-12-18T15:06:21;11.97;;;7.03;;
15240;SDS011;7723;52.170;9.978;2022-12-18T15:08:53;9.67;;;6.03;;
15240;SDS011;7723;52.170;9.978;2022-12-18T15:11:28;8.30;;;5.40;;
15240;SDS011;7723;52.170;9.978;2022-12-18T15:13:59;9.33;;;6.43;;
15240;SDS011;7723;52.170;9.978;2022-12-18T15:16:42;10.83;;;6.23;;
15240;SDS011;7723;52.170;9.978;2022-12-18T15:19:09;12.33;;;7.00;;
15240;SDS011;7723;52.170;9.978;2022-12-18T15:21:41;11.03;;;5.77;;
15240;SDS011;7723;52.170;9.978;2022-12-18T15:24:13;11.50;;;6.40;;
15240;SDS011;7723;52.170;9.978;2022-12-18T15:26:44;9.87;;;5.83;;